createdAt,value
2019-04-05T00:02:08.121Z,24.73
2019-04-05T00:04:39.125Z,12.50
2019-04-05T00:07:09.868Z,19.33
2019-04-05T00:09:40.649Z,17.77
2019-04-05T00:12:11.328Z,17.13
2019-04-05T00:14:42.290Z,16.83
2019-04-05T00:17:12.762Z,19.90
2019-04-05T00:19:43.630Z,15.93
2019-04-05T00:22:13.969Z,17.83
2019-04-05T00:24:44.975Z,17.93
2019-04-05T00:27:15.659Z,26.03
2019-04-05T00:29:46.625Z,18.03
2019-04-05T00:32:17.343Z,14.93
2019-04-05T00:34:47.709Z,15.27
2019-04-05T00:37:18.315Z,18.30
2019-04-05T00:39:48.719Z,16.23
2019-04-05T00:42:19.204Z,25.03
2019-04-05T00:44:49.841Z,19.33
2019-04-05T00:47:20.219Z,17.33
2019-04-05T00:49:51.286Z,19.27
2019-04-05T00:52:22.040Z,19.00
2019-04-05T00:54:52.746Z,15.40
2019-04-05T00:57:24.086Z,22.60
2019-04-05T00:59:54.818Z,20.97
2019-04-05T01:02:25.550Z,17.17
2019-04-05T01:04:55.912Z,22.90
2019-04-05T01:07:26.487Z,19.70
2019-04-05T01:09:57.481Z,25.37
2019-04-05T01:12:28.197Z,17.90
2019-04-05T01:14:58.536Z,17.90
2019-04-05T01:17:28.910Z,16.87
2019-04-05T01:20:02.080Z,19.87
2019-04-05T01:22:33.284Z,21.73
2019-04-05T01:25:05.157Z,20.23
2019-04-05T01:27:35.935Z,27.77
2019-04-05T01:30:09.093Z,18.60
2019-04-05T01:32:39.575Z,17.83
2019-04-05T01:35:10.183Z,21.13
2019-04-05T01:37:41.490Z,16.13
2019-04-05T01:40:12.954Z,17.13
2019-04-05T01:42:43.296Z,24.20
2019-04-05T01:45:14.340Z,18.13
2019-04-05T01:47:45.036Z,18.03
2019-04-05T01:50:15.847Z,23.17
2019-04-05T01:52:46.729Z,20.60
2019-04-05T01:55:17.137Z,17.60
2019-04-05T01:57:48.398Z,21.57
2019-04-05T02:00:19.022Z,27.03
2019-04-05T02:02:49.779Z,22.27
2019-04-05T02:05:20.139Z,19.80
2019-04-05T02:07:50.476Z,16.83
2019-04-05T02:10:21.189Z,21.73
2019-04-05T02:12:51.900Z,24.20
2019-04-05T02:15:30.300Z,21.27
2019-04-05T02:18:00.937Z,22.33
2019-04-05T02:20:31.716Z,27.43
2019-04-05T02:23:02.127Z,18.27
2019-04-05T02:25:32.750Z,20.57
2019-04-05T02:28:03.808Z,20.70
2019-04-05T02:30:34.570Z,20.73
2019-04-05T02:33:04.923Z,22.97
2019-04-05T02:35:38.901Z,23.43
2019-04-05T02:38:07.664Z,18.20
2019-04-05T02:40:38.598Z,22.70
2019-04-05T02:43:09.793Z,27.00
2019-04-05T02:45:40.961Z,16.80
2019-04-05T02:48:11.656Z,20.10
2019-04-05T02:50:45.627Z,29.90
2019-04-05T02:53:16.414Z,20.83
2019-04-05T02:55:47.018Z,27.30
2019-04-05T02:58:17.382Z,22.90
2019-04-05T03:00:47.818Z,21.70
2019-04-05T03:03:18.538Z,22.53
2019-04-05T03:05:48.903Z,25.80
2019-04-05T03:08:19.675Z,27.63
2019-04-05T03:11:05.320Z,27.27
2019-04-05T03:13:39.197Z,26.40
2019-04-05T03:16:17.079Z,24.60
2019-04-05T03:19:05.185Z,19.93
2019-04-05T03:21:37.726Z,21.20
2019-04-05T03:24:08.088Z,24.43
2019-04-05T03:26:42.729Z,28.10
2019-04-05T03:29:13.339Z,24.80
2019-04-05T03:31:43.706Z,22.43
2019-04-05T03:34:14.433Z,29.40
2019-04-05T03:36:44.761Z,21.97
2019-04-05T03:39:15.172Z,21.50
2019-04-05T03:41:45.895Z,25.70
2019-04-05T03:44:16.608Z,21.13
2019-04-05T03:46:56.262Z,26.63
2019-04-05T03:49:19.469Z,24.03
2019-04-05T03:51:51.036Z,22.83
2019-04-05T03:54:22.035Z,23.10
2019-04-05T03:56:52.705Z,20.77
2019-04-05T03:59:23.678Z,22.33
2019-04-05T04:01:54.366Z,19.07
2019-04-05T04:04:25.329Z,24.20
2019-04-05T04:06:56.072Z,20.90
2019-04-05T04:09:26.779Z,20.17
2019-04-05T04:11:57.116Z,26.87
2019-04-05T04:14:27.462Z,37.13
2019-04-05T04:17:11.441Z,34.77
2019-04-05T04:19:30.243Z,29.03
2019-04-05T04:22:08.449Z,29.40
2019-04-05T04:24:39.171Z,32.67
2019-04-05T04:27:09.557Z,24.97
2019-04-05T04:29:40.505Z,24.67
2019-04-05T04:32:11.179Z,29.93
2019-04-05T04:34:42.681Z,37.80
2019-04-05T04:37:13.136Z,21.50
2019-04-05T04:39:43.734Z,27.03
2019-04-05T04:42:14.461Z,25.00
2019-04-05T04:44:45.303Z,29.23
2019-04-05T04:47:26.466Z,27.23
2019-04-05T04:49:48.431Z,27.77
2019-04-05T04:52:19.681Z,25.23
2019-04-05T04:54:50.034Z,27.50
2019-04-05T04:57:20.738Z,27.25
2019-04-05T04:59:51.843Z,30.27
2019-04-05T05:02:22.633Z,30.05
2019-04-05T05:04:53.336Z,22.20
2019-04-05T05:07:23.797Z,30.70
2019-04-05T05:09:54.528Z,23.80
2019-04-05T05:12:25.444Z,29.73
2019-04-05T05:14:55.876Z,38.40
2019-04-05T05:17:37.764Z,25.93
2019-04-05T05:19:58.555Z,34.37
2019-04-05T05:22:29.345Z,26.57
2019-04-05T05:24:59.847Z,27.43
2019-04-05T05:27:30.981Z,27.23
2019-04-05T05:30:01.857Z,24.70
2019-04-05T05:32:32.868Z,24.97
2019-04-05T05:35:03.482Z,23.23
2019-04-05T05:37:33.873Z,30.73
2019-04-05T05:40:07.717Z,20.60
2019-04-05T05:42:38.085Z,24.40
2019-04-05T05:45:09.452Z,29.53
2019-04-05T05:47:51.047Z,25.60
2019-04-05T05:50:12.327Z,37.33
2019-04-05T05:52:43.184Z,28.60
2019-04-05T05:55:13.540Z,40.13
2019-04-05T05:57:43.980Z,42.77
2019-04-05T06:00:15.533Z,50.10
2019-04-05T06:02:48.283Z,48.43
2019-04-05T06:05:18.271Z,58.20
2019-04-05T06:07:48.645Z,48.67
2019-04-05T06:10:19.873Z,55.27
2019-04-05T06:12:50.204Z,48.30
2019-04-05T06:15:20.747Z,64.80
2019-04-05T06:18:03.820Z,65.37
2019-04-05T06:20:24.250Z,81.33
2019-04-05T06:22:54.640Z,72.60
2019-04-05T06:25:25.493Z,68.70
2019-04-05T06:27:56.492Z,63.97
2019-04-05T06:30:28.940Z,65.97
2019-04-05T06:32:59.631Z,75.80
2019-04-05T06:35:29.995Z,71.90
2019-04-05T06:38:00.356Z,76.83
2019-04-05T06:40:40.595Z,68.90
2019-04-05T06:43:02.987Z,76.43
2019-04-05T06:45:33.742Z,85.17
2019-04-05T06:48:18.104Z,84.63
2019-04-05T06:50:36.157Z,78.93
2019-04-05T06:53:06.532Z,79.67
2019-04-05T06:55:36.862Z,84.97
2019-04-05T06:58:10.353Z,80.67
2019-04-05T07:00:40.167Z,79.07
2019-04-05T07:03:13.467Z,77.93
2019-04-05T07:05:42.546Z,84.80
2019-04-05T07:08:12.964Z,84.03
2019-04-05T07:10:45.175Z,87.53
2019-04-05T07:13:15.696Z,74.33
2019-04-05T07:15:46.296Z,87.70
2019-04-05T07:18:16.695Z,79.37
2019-04-05T07:20:47.024Z,76.33
2019-04-05T07:23:17.369Z,82.83
2019-04-05T07:25:48.073Z,85.07
2019-04-05T07:28:18.711Z,91.90
2019-04-05T07:30:49.128Z,88.23
2019-04-05T07:33:19.553Z,94.20
2019-04-05T07:35:49.968Z,87.03
2019-04-05T07:38:20.627Z,92.57
2019-04-05T07:40:51.246Z,92.17
2019-04-05T07:43:21.634Z,99.63
2019-04-05T07:45:51.962Z,94.83
2019-04-05T07:48:22.315Z,104.07
2019-04-05T07:50:53.088Z,98.90
2019-04-05T07:53:23.464Z,101.57
2019-04-05T07:55:54.129Z,95.90
2019-04-05T07:58:24.752Z,110.30
2019-04-05T08:00:56.096Z,114.93
2019-04-05T08:03:26.974Z,106.33
2019-04-05T08:05:57.771Z,106.50
2019-04-05T08:08:41.220Z,101.80
2019-04-05T08:11:11.982Z,111.37
2019-04-05T08:13:42.786Z,105.17
2019-04-05T08:16:13.520Z,116.20
2019-04-05T08:18:56.732Z,104.30
2019-04-05T08:21:17.008Z,104.83
2019-04-05T08:23:47.732Z,106.80
2019-04-05T08:26:18.560Z,116.90
2019-04-05T08:28:48.932Z,116.10
2019-04-05T08:31:19.286Z,107.60
2019-04-05T08:33:50.322Z,108.20
2019-04-05T08:36:21.192Z,106.80
2019-04-05T08:38:51.545Z,107.43
2019-04-05T08:41:22.390Z,104.00
2019-04-05T08:43:53.091Z,100.73
2019-04-05T08:46:24.079Z,106.93
2019-04-05T08:48:54.457Z,107.40
2019-04-05T08:51:25.178Z,108.80
2019-04-05T08:53:55.521Z,107.70
2019-04-05T08:56:27.179Z,114.33
2019-04-05T08:58:57.547Z,101.73
2019-04-05T09:01:27.994Z,112.33
2019-04-05T09:03:58.650Z,111.70
2019-04-05T09:06:28.999Z,112.50
2019-04-05T09:08:59.741Z,110.27
2019-04-05T09:11:30.157Z,111.13
2019-04-05T09:14:00.625Z,115.93
2019-04-05T09:16:31.353Z,117.50
2019-04-05T09:19:01.840Z,120.57
2019-04-05T09:21:32.660Z,129.10
2019-04-05T09:24:03.015Z,122.40
2019-04-05T09:26:33.940Z,115.87
2019-04-05T09:29:04.910Z,125.60
2019-04-05T09:31:35.252Z,126.22
2019-04-05T09:34:05.634Z,121.10
2019-04-05T09:36:36.743Z,113.00
2019-04-05T09:39:15.005Z,115.93
2019-04-05T09:41:42.714Z,120.53
2019-04-05T09:44:13.627Z,127.80
2019-04-05T09:46:47.239Z,113.43
2019-04-05T09:49:16.187Z,117.97
2019-04-05T09:51:46.937Z,120.43
2019-04-05T09:54:17.717Z,105.27
2019-04-05T09:56:48.095Z,116.03
2019-04-05T09:59:18.882Z,111.77
2019-04-05T10:01:49.572Z,106.27
2019-04-05T10:04:20.121Z,116.80
2019-04-05T10:06:50.837Z,118.03
2019-04-05T10:09:21.205Z,118.37
2019-04-05T10:11:52.337Z,115.97
2019-04-05T10:14:23.112Z,118.73
2019-04-05T10:16:53.932Z,115.50
2019-04-05T10:19:24.309Z,118.93
2019-04-05T10:21:55.388Z,114.13
2019-04-05T10:24:26.119Z,117.75
2019-04-05T10:26:56.469Z,109.20
2019-04-05T10:29:26.850Z,129.23
2019-04-05T10:31:57.283Z,111.33
2019-04-05T10:34:28.217Z,122.37
2019-04-05T10:36:58.988Z,126.73
2019-04-05T10:39:29.365Z,114.60
2019-04-05T10:42:03.748Z,121.70
2019-04-05T10:44:31.923Z,116.43
2019-04-05T10:47:02.572Z,121.30
2019-04-05T10:49:33.280Z,119.77
2019-04-05T10:52:04.628Z,115.57
2019-04-05T10:54:35.004Z,112.50
2019-04-05T10:57:05.711Z,116.60
2019-04-05T10:59:38.511Z,122.80
2019-04-05T11:02:08.211Z,109.93
2019-04-05T11:04:38.664Z,115.57
2019-04-05T11:07:09.551Z,99.80
2019-04-05T11:09:39.899Z,101.00
2019-04-05T11:12:10.616Z,100.43
2019-04-05T11:14:41.003Z,94.37
2019-04-05T11:17:11.446Z,88.90
2019-04-05T11:19:42.217Z,80.10
2019-04-05T11:22:13.027Z,79.57
2019-04-05T11:24:43.399Z,84.13
2019-04-05T11:27:13.917Z,80.13
2019-04-05T11:29:44.663Z,95.07
2019-04-05T11:32:15.377Z,90.53
2019-04-05T11:34:45.774Z,82.93
2019-04-05T11:37:19.181Z,78.07
2019-04-05T11:39:49.704Z,81.03
2019-04-05T11:42:20.470Z,88.10
2019-04-05T11:44:53.901Z,86.70
2019-04-05T11:47:24.516Z,88.47
2019-04-05T11:49:55.166Z,78.57
2019-04-05T11:52:25.935Z,87.97
2019-04-05T11:54:56.306Z,83.33
2019-04-05T11:57:26.706Z,89.00
2019-04-05T11:59:57.531Z,81.73
2019-04-05T12:02:32.772Z,83.63
2019-04-05T12:05:03.326Z,76.13
2019-04-05T12:07:34.226Z,81.37
2019-04-05T12:10:07.981Z,83.20
2019-04-05T12:12:38.579Z,76.50
2019-04-05T12:15:08.952Z,73.30
2019-04-05T12:17:39.292Z,81.00
2019-04-05T12:20:09.662Z,81.47
2019-04-05T12:22:40.341Z,73.73
2019-04-05T12:25:11.216Z,75.37
2019-04-05T12:27:42.231Z,74.53
2019-04-05T12:30:14.233Z,78.40
2019-04-05T12:32:46.652Z,71.83
2019-04-05T12:35:17.055Z,77.97
2019-04-05T12:37:50.637Z,76.83
2019-04-05T12:40:19.925Z,80.60
2019-04-05T12:42:52.888Z,74.17
2019-04-05T12:45:23.033Z,81.07
2019-04-05T12:47:53.928Z,70.60
2019-04-05T12:50:24.329Z,78.10
2019-04-05T12:52:56.762Z,76.40
2019-04-05T12:55:27.083Z,73.63
2019-04-05T12:57:57.449Z,88.80
2019-04-05T13:00:28.140Z,76.47
2019-04-05T13:02:59.390Z,72.73
2019-04-05T13:05:30.019Z,71.03
2019-04-05T13:08:00.391Z,85.43
2019-04-05T13:10:30.900Z,69.70
2019-04-05T13:13:01.647Z,74.83
2019-04-05T13:15:32.014Z,67.63
2019-04-05T13:18:02.373Z,72.73
2019-04-05T13:20:33.118Z,70.33
2019-04-05T13:23:06.503Z,69.97
2019-04-05T13:25:36.245Z,79.27
2019-04-05T13:28:13.076Z,70.30
2019-04-05T13:30:39.309Z,71.60
2019-04-05T13:33:09.913Z,71.53
2019-04-05T13:35:40.267Z,72.67
2019-04-05T13:38:10.764Z,87.97
2019-04-05T13:40:41.164Z,68.00
2019-04-05T13:43:11.848Z,68.70
2019-04-05T13:45:42.499Z,72.13
2019-04-05T13:48:13.240Z,71.90
2019-04-05T13:50:43.868Z,72.87
2019-04-05T13:53:14.612Z,69.23
2019-04-05T13:55:47.358Z,66.97
2019-04-05T13:58:17.075Z,72.23
2019-04-05T14:00:48.719Z,75.07
2019-04-05T14:03:21.015Z,65.70
2019-04-05T14:05:53.951Z,72.17
2019-04-05T14:08:24.001Z,67.23
2019-04-05T14:10:54.708Z,62.87
2019-04-05T14:13:25.040Z,73.67
2019-04-05T14:15:55.492Z,63.57
2019-04-05T14:18:26.035Z,66.03
2019-04-05T14:20:57.195Z,75.70
2019-04-05T14:23:27.678Z,65.23
2019-04-05T14:25:59.901Z,63.53
2019-04-05T14:28:32.251Z,71.93
2019-04-05T14:31:02.873Z,65.60
2019-04-05T14:33:34.109Z,71.80
2019-04-05T14:36:04.939Z,76.63
2019-04-05T14:38:35.292Z,73.27
2019-04-05T14:41:05.690Z,64.80
2019-04-05T14:43:37.821Z,72.87
2019-04-05T14:46:09.217Z,73.53
2019-04-05T14:48:39.978Z,67.43
2019-04-05T14:51:10.811Z,74.53
2019-04-05T14:53:41.180Z,74.57
2019-04-05T14:56:11.565Z,72.43
2019-04-05T14:58:42.263Z,73.43
2019-04-05T15:01:13.141Z,77.77
2019-04-05T15:03:43.642Z,71.53
2019-04-05T15:06:13.984Z,78.43
2019-04-05T15:08:47.713Z,75.47
2019-04-05T15:11:17.302Z,68.60
2019-04-05T15:13:48.012Z,66.83
2019-04-05T15:16:18.726Z,72.97
2019-04-05T15:18:49.313Z,65.73
2019-04-05T15:21:19.994Z,65.60
2019-04-05T15:23:50.429Z,73.10
2019-04-05T15:26:21.516Z,72.13
2019-04-05T15:28:54.585Z,65.90
2019-04-05T15:31:26.443Z,73.83
2019-04-05T15:33:57.786Z,69.80
2019-04-05T15:36:29.446Z,70.40
2019-04-05T15:39:01.955Z,67.70
2019-04-05T15:41:32.454Z,74.20
2019-04-05T15:44:05.159Z,66.37
2019-04-05T15:46:35.029Z,64.70
2019-04-05T15:49:05.645Z,69.77
2019-04-05T15:51:36.283Z,76.57
2019-04-05T15:54:06.634Z,78.23
2019-04-05T15:56:37.103Z,68.20
2019-04-05T15:59:07.457Z,78.20
2019-04-05T16:01:37.864Z,75.90
2019-04-05T16:04:08.399Z,70.67
2019-04-05T16:06:39.168Z,67.60
2019-04-05T16:09:11.313Z,74.67
2019-04-05T16:11:41.699Z,75.73
2019-04-05T16:14:12.767Z,70.73
2019-04-05T16:16:43.204Z,65.57
2019-04-05T16:19:13.902Z,73.80
2019-04-05T16:21:44.675Z,81.23
2019-04-05T16:24:15.309Z,74.77
2019-04-05T16:26:46.321Z,85.10
2019-04-05T16:29:17.097Z,94.40
2019-04-05T16:31:47.441Z,72.47
2019-04-05T16:34:18.535Z,70.97
2019-04-05T16:36:48.905Z,67.17
2019-04-05T16:39:20.017Z,70.63
2019-04-05T16:41:50.428Z,72.43
2019-04-05T16:44:21.048Z,74.00
2019-04-05T16:46:52.710Z,73.83
2019-04-05T16:49:23.783Z,89.47
2019-04-05T16:51:54.524Z,80.90
2019-04-05T16:54:25.265Z,80.87
2019-04-05T16:56:56.005Z,78.57
2019-04-05T16:59:26.727Z,78.30
2019-04-05T17:01:57.083Z,81.20
2019-04-05T17:04:28.043Z,79.13
2019-04-05T17:06:59.058Z,72.13
2019-04-05T17:09:29.795Z,87.27
2019-04-05T17:12:00.202Z,83.93
2019-04-05T17:14:30.560Z,79.63
2019-04-05T17:17:01.239Z,82.10
2019-04-05T17:19:31.849Z,78.50
2019-04-05T17:22:02.381Z,73.10
2019-04-05T17:24:32.754Z,79.25
2019-04-05T17:27:03.154Z,82.77
2019-04-05T17:29:33.876Z,80.30
2019-04-05T17:32:11.817Z,75.90
2019-04-05T17:34:42.200Z,74.73
2019-04-05T17:37:12.569Z,72.67
2019-04-05T17:39:43.350Z,79.20
2019-04-05T17:42:13.975Z,82.07
2019-04-05T17:44:45.184Z,82.63
2019-04-05T17:47:15.835Z,84.77
2019-04-05T17:49:46.162Z,74.40
2019-04-05T17:52:16.512Z,79.63
2019-04-05T17:54:47.394Z,79.53
2019-04-05T17:57:17.743Z,93.50
2019-04-05T17:59:48.682Z,82.10
2019-04-05T18:02:19.294Z,90.27
2019-04-05T18:04:49.698Z,88.00
2019-04-05T18:07:20.016Z,82.17
2019-04-05T18:09:51.092Z,87.20
2019-04-05T18:12:21.867Z,87.70
2019-04-05T18:14:52.243Z,88.00
2019-04-05T18:17:22.936Z,77.93
2019-04-05T18:19:53.673Z,78.50
2019-04-05T18:22:24.113Z,83.20
2019-04-05T18:24:54.948Z,86.43
2019-04-05T18:27:25.629Z,80.33
2019-04-05T18:29:56.388Z,87.07
2019-04-05T18:32:27.252Z,86.67
2019-04-05T18:34:57.633Z,84.53
2019-04-05T18:37:28.507Z,87.60
2019-04-05T18:40:00.038Z,81.83
2019-04-05T18:42:30.915Z,101.50
2019-04-05T18:45:01.744Z,84.70
2019-04-05T18:47:32.469Z,87.20
2019-04-05T18:50:03.621Z,81.97
2019-04-05T18:52:33.979Z,89.40
2019-04-05T18:55:07.235Z,79.23
2019-04-05T18:57:37.884Z,85.73
2019-04-05T19:00:08.627Z,86.07
2019-04-05T19:02:38.996Z,82.90
2019-04-05T19:05:09.877Z,85.00
2019-04-05T19:07:40.243Z,88.67
2019-04-05T19:10:11.066Z,84.60
2019-04-05T19:12:41.551Z,81.57
2019-04-05T19:15:12.311Z,91.33
2019-04-05T19:17:42.713Z,89.93
2019-04-05T19:20:13.059Z,91.57
2019-04-05T19:22:43.881Z,84.60
2019-04-05T19:25:14.659Z,85.23
2019-04-05T19:27:45.045Z,82.93
2019-04-05T19:50:34.769Z,88.43
2019-04-05T19:53:05.434Z,83.80
2019-04-05T19:55:35.869Z,84.47
2019-04-05T19:58:06.904Z,80.73
2019-04-05T20:00:37.643Z,82.80
2019-04-05T20:03:08.423Z,90.33
2019-04-05T20:05:38.770Z,86.53
2019-04-05T20:08:09.157Z,81.30
2019-04-05T20:10:39.852Z,87.30
2019-04-05T20:13:10.199Z,85.60
2019-04-05T20:15:40.547Z,78.60
2019-04-05T20:18:11.314Z,80.17
2019-04-05T20:20:42.013Z,90.63
2019-04-05T20:23:12.395Z,91.67
2019-04-05T20:25:42.804Z,80.20
2019-04-05T20:28:13.250Z,82.83
2019-04-05T20:30:43.634Z,85.10
2019-04-05T20:33:14.051Z,79.50
2019-04-05T20:35:44.795Z,86.47
2019-04-05T20:38:15.487Z,84.57
2019-04-05T20:40:46.232Z,82.07
2019-04-05T20:43:16.605Z,81.03
2019-04-05T20:45:47.349Z,86.47
2019-04-05T20:48:17.831Z,78.47
2019-04-05T20:50:48.803Z,80.77
2019-04-05T20:53:19.212Z,78.70
2019-04-05T20:55:50.575Z,91.20
2019-04-05T20:58:21.008Z,80.00
2019-04-05T21:00:51.377Z,88.77
2019-04-05T21:03:21.793Z,82.70
2019-04-05T21:05:52.550Z,85.77
2019-04-05T21:08:23.299Z,86.00
2019-04-05T21:10:53.728Z,83.97
2019-04-05T21:13:24.356Z,88.03
2019-04-05T21:15:54.992Z,78.27
2019-04-05T21:18:25.370Z,90.10
2019-04-05T21:20:56.119Z,82.67
2019-04-05T21:23:26.489Z,85.57
2019-04-05T21:25:57.236Z,75.07
2019-04-05T21:28:27.607Z,80.13
2019-04-05T21:30:57.997Z,87.37
2019-04-05T21:33:28.773Z,79.00
2019-04-05T21:35:59.421Z,84.83
2019-04-05T21:38:29.772Z,77.47
2019-04-05T21:41:00.819Z,85.23
2019-04-05T21:43:31.568Z,86.40
2019-04-05T21:46:01.930Z,84.37
2019-04-05T21:48:32.377Z,87.43
2019-04-05T21:51:03.096Z,77.13
2019-04-05T21:53:34.391Z,82.30
2019-04-05T21:56:04.834Z,79.27
2019-04-05T21:58:35.208Z,83.97
2019-04-05T22:01:08.013Z,83.03
2019-04-05T22:03:38.417Z,93.07
2019-04-05T22:06:09.101Z,83.77
2019-04-05T22:08:39.773Z,90.20
2019-04-05T22:11:10.532Z,82.63
2019-04-05T22:13:40.930Z,80.53
2019-04-05T22:16:11.584Z,86.13
2019-04-05T22:18:41.955Z,77.00
2019-04-05T22:21:12.697Z,89.00
2019-04-05T22:23:43.063Z,80.43
2019-04-05T22:26:13.433Z,79.80
2019-04-05T22:28:43.784Z,82.30
2019-04-05T22:31:14.195Z,89.83
2019-04-05T22:33:45.027Z,89.93
2019-04-05T22:36:15.772Z,84.90
2019-04-05T22:38:46.431Z,85.30
2019-04-05T22:41:17.583Z,82.20
2019-04-05T22:43:48.327Z,95.17
2019-04-05T22:46:19.372Z,84.97
2019-04-05T22:48:49.790Z,85.90
2019-04-05T22:51:20.184Z,87.70
2019-04-05T22:53:50.555Z,84.83
2019-04-05T22:56:21.274Z,85.07
2019-04-05T22:58:53.442Z,87.57
2019-04-05T23:01:23.873Z,88.63
2019-04-05T23:03:54.245Z,93.37
2019-04-05T23:06:25.555Z,85.73
2019-04-05T23:08:56.271Z,89.43
2019-04-05T23:11:26.643Z,91.03
2019-04-05T23:13:57.359Z,96.07
2019-04-05T23:16:28.082Z,93.70
2019-04-05T23:18:58.493Z,87.30
2019-04-05T23:21:28.832Z,85.33
2019-04-05T23:23:59.488Z,99.07
2019-04-05T23:26:30.145Z,84.17
2019-04-05T23:29:00.917Z,94.43
2019-04-05T23:31:31.563Z,85.60
2019-04-05T23:34:02.337Z,85.90
2019-04-05T23:36:33.104Z,83.30
2019-04-05T23:39:03.687Z,90.50
2019-04-05T23:41:34.072Z,87.20
2019-04-05T23:44:04.596Z,84.47
2019-04-05T23:46:34.952Z,81.30
2019-04-05T23:49:05.719Z,88.80
2019-04-05T23:51:36.454Z,80.97
2019-04-05T23:54:07.229Z,76.43
2019-04-05T23:56:38.333Z,71.63
2019-04-05T23:59:08.749Z,77.83
